sensor_id;sensor_type;location;lat;lon;timestamp;pressure;altitude;pressure_sealevel;temperature;humidity
74372;BME280;62885;51.374;6.170;2022-10-16T00:01:56;100843.16;;;13.85;87.81
74372;BME280;62885;51.374;6.170;2022-10-16T00:04:24;100841.84;;;13.80;87.74
74372;BME280;62885;51.374;6.170;2022-10-16T00:06:50;100841.53;;;13.73;88.04
74372;BME280;62885;51.374;6.170;2022-10-16T00:09:15;100838.84;;;13.73;88.04
74372;BME280;62885;51.374;6.170;2022-10-16T00:11:41;100842.75;;;13.69;88.48
74372;BME280;62885;51.374;6.170;2022-10-16T00:14:12;100834.44;;;13.72;88.20
74372;BME280;62885;51.374;6.170;2022-10-16T00:16:37;100836.84;;;13.75;88.09
74372;BME280;62885;51.374;6.170;2022-10-16T00:19:04;100847.59;;;13.75;88.00
74372;BME280;62885;51.374;6.170;2022-10-16T00:21:30;100834.44;;;13.72;88.00
74372;BME280;62885;51.374;6.170;2022-10-16T00:24:01;100839.28;;;13.78;87.99
74372;BME280;62885;51.374;6.170;2022-10-16T00:26:29;100829.19;;;13.71;87.95
74372;BME280;62885;51.374;6.170;2022-10-16T00:28:54;100822.84;;;13.81;87.88
74372;BME280;62885;51.374;6.170;2022-10-16T00:31:22;100828.66;;;13.77;87.51
74372;BME280;62885;51.374;6.170;2022-10-16T00:33:48;100836.41;;;13.70;88.06
74372;BME280;62885;51.374;6.170;2022-10-16T00:36:17;100826.63;;;13.69;88.19
74372;BME280;62885;51.374;6.170;2022-10-16T00:38:43;100818.69;;;13.68;88.11
74372;BME280;62885;51.374;6.170;2022-10-16T00:41:12;100821.75;;;13.63;88.12
74372;BME280;62885;51.374;6.170;2022-10-16T00:48:36;100831.13;;;13.69;87.70
74372;BME280;62885;51.374;6.170;2022-10-16T00:51:01;100828.31;;;13.70;87.45
74372;BME280;62885;51.374;6.170;2022-10-16T00:53:27;100821.84;;;13.73;87.22
74372;BME280;62885;51.374;6.170;2022-10-16T00:55:52;100822.69;;;13.73;87.23
74372;BME280;62885;51.374;6.170;2022-10-16T00:58:18;100826.50;;;13.71;87.05
74372;BME280;62885;51.374;6.170;2022-10-16T01:00:44;100827.34;;;13.71;87.22
74372;BME280;62885;51.374;6.170;2022-10-16T01:03:25;100832.72;;;13.71;87.21
74372;BME280;62885;51.374;6.170;2022-10-16T01:06:03;100837.13;;;13.72;87.08
74372;BME280;62885;51.374;6.170;2022-10-16T01:11:39;100845.16;;;13.63;87.16
74372;BME280;62885;51.374;6.170;2022-10-16T01:14:14;100841.84;;;13.59;86.97
74372;BME280;62885;51.374;6.170;2022-10-16T01:16:49;100845.81;;;13.55;87.23
74372;BME280;62885;51.374;6.170;2022-10-16T01:19:44;100835.44;;;13.50;87.54
74372;BME280;62885;51.374;6.170;2022-10-16T01:22:15;100839.69;;;13.53;87.03
74372;BME280;62885;51.374;6.170;2022-10-16T01:24:46;100834.97;;;13.45;86.88
74372;BME280;62885;51.374;6.170;2022-10-16T01:29:54;100829.28;;;13.39;87.29
74372;BME280;62885;51.374;6.170;2022-10-16T01:32:37;100829.41;;;13.37;87.62
74372;BME280;62885;51.374;6.170;2022-10-16T01:35:09;100823.44;;;13.34;87.41
74372;BME280;62885;51.374;6.170;2022-10-16T01:37:37;100817.22;;;13.33;87.55
74372;BME280;62885;51.374;6.170;2022-10-16T01:40:09;100829.94;;;13.31;87.25
74372;BME280;62885;51.374;6.170;2022-10-16T01:42:40;100817.47;;;13.30;87.33
74372;BME280;62885;51.374;6.170;2022-10-16T01:45:07;100827.25;;;13.31;87.18
74372;BME280;62885;51.374;6.170;2022-10-16T01:47:36;100833.34;;;13.33;87.45
74372;BME280;62885;51.374;6.170;2022-10-16T01:50:04;100828.50;;;13.27;86.87
74372;BME280;62885;51.374;6.170;2022-10-16T01:52:32;100828.34;;;13.29;86.89
74372;BME280;62885;51.374;6.170;2022-10-16T01:55:00;100835.03;;;13.34;87.39
74372;BME280;62885;51.374;6.170;2022-10-16T01:57:27;100852.19;;;13.33;86.75
74372;BME280;62885;51.374;6.170;2022-10-16T01:59:58;100848.63;;;13.33;87.16
74372;BME280;62885;51.374;6.170;2022-10-16T02:02:26;100851.97;;;13.25;86.87
74372;BME280;62885;51.374;6.170;2022-10-16T02:04:58;100845.63;;;13.26;87.33
74372;BME280;62885;51.374;6.170;2022-10-16T02:07:26;100847.44;;;13.26;87.18
74372;BME280;62885;51.374;6.170;2022-10-16T02:09:52;100854.91;;;13.22;87.29
74372;BME280;62885;51.374;6.170;2022-10-16T02:12:25;100855.38;;;13.27;87.39
74372;BME280;62885;51.374;6.170;2022-10-16T02:14:51;100847.56;;;13.24;86.93
74372;BME280;62885;51.374;6.170;2022-10-16T02:17:18;100852.09;;;13.24;87.57
74372;BME280;62885;51.374;6.170;2022-10-16T02:19:45;100855.06;;;13.21;87.02
74372;BME280;62885;51.374;6.170;2022-10-16T02:22:18;100854.06;;;13.22;86.76
74372;BME280;62885;51.374;6.170;2022-10-16T02:24:55;100853.59;;;13.16;87.19
74372;BME280;62885;51.374;6.170;2022-10-16T02:32:49;100849.06;;;13.17;87.01
74372;BME280;62885;51.374;6.170;2022-10-16T02:35:17;100853.09;;;13.11;87.05
74372;BME280;62885;51.374;6.170;2022-10-16T02:37:44;100859.59;;;13.09;87.85
74372;BME280;62885;51.374;6.170;2022-10-16T02:40:11;100860.22;;;13.12;87.40
74372;BME280;62885;51.374;6.170;2022-10-16T02:42:38;100862.78;;;13.14;87.33
74372;BME280;62885;51.374;6.170;2022-10-16T02:45:05;100857.53;;;13.12;87.88
74372;BME280;62885;51.374;6.170;2022-10-16T02:47:30;100860.09;;;13.14;87.53
74372;BME280;62885;51.374;6.170;2022-10-16T02:49:56;100867.66;;;13.09;87.83
74372;BME280;62885;51.374;6.170;2022-10-16T02:52:21;100860.69;;;13.06;87.40
74372;BME280;62885;51.374;6.170;2022-10-16T02:54:46;100866.66;;;13.21;87.13
74372;BME280;62885;51.374;6.170;2022-10-16T02:57:12;100863.75;;;13.13;87.50
74372;BME280;62885;51.374;6.170;2022-10-16T02:59:37;100866.31;;;13.14;87.58
74372;BME280;62885;51.374;6.170;2022-10-16T03:02:03;100868.03;;;13.15;87.48
74372;BME280;62885;51.374;6.170;2022-10-16T03:04:28;100852.75;;;13.16;87.53
74372;BME280;62885;51.374;6.170;2022-10-16T03:06:54;100847.38;;;13.16;87.49
74372;BME280;62885;51.374;6.170;2022-10-16T03:09:19;100846.38;;;13.17;87.71
74372;BME280;62885;51.374;6.170;2022-10-16T03:11:44;100845.28;;;13.20;87.30
74372;BME280;62885;51.374;6.170;2022-10-16T03:14:10;100844.41;;;13.19;86.83
74372;BME280;62885;51.374;6.170;2022-10-16T03:16:35;100843.31;;;13.10;87.71
74372;BME280;62885;51.374;6.170;2022-10-16T03:19:00;100852.75;;;13.16;87.16
74372;BME280;62885;51.374;6.170;2022-10-16T03:21:26;100852.75;;;13.16;87.42
74372;BME280;62885;51.374;6.170;2022-10-16T03:23:51;100854.72;;;13.14;87.31
74372;BME280;62885;51.374;6.170;2022-10-16T03:26:16;100852.50;;;13.19;87.70
74372;BME280;62885;51.374;6.170;2022-10-16T03:28:42;100855.44;;;13.16;87.02
74372;BME280;62885;51.374;6.170;2022-10-16T03:31:07;100862.13;;;13.10;87.35
74372;BME280;62885;51.374;6.170;2022-10-16T03:33:33;100870.47;;;13.07;87.46
74372;BME280;62885;51.374;6.170;2022-10-16T03:35:58;100877.44;;;13.10;87.72
74372;BME280;62885;51.374;6.170;2022-10-16T03:38:24;100888.03;;;13.11;87.56
74372;BME280;62885;51.374;6.170;2022-10-16T03:40:49;100885.63;;;13.08;87.86
74372;BME280;62885;51.374;6.170;2022-10-16T03:43:15;100884.75;;;13.19;87.98
74372;BME280;62885;51.374;6.170;2022-10-16T03:45:40;100880.97;;;13.22;87.68
74372;BME280;62885;51.374;6.170;2022-10-16T03:48:06;100881.72;;;13.12;87.37
74372;BME280;62885;51.374;6.170;2022-10-16T03:50:31;100880.75;;;13.13;87.25
74372;BME280;62885;51.374;6.170;2022-10-16T03:52:56;100867.78;;;13.07;87.36
74372;BME280;62885;51.374;6.170;2022-10-16T03:55:22;100872.41;;;13.05;87.41
74372;BME280;62885;51.374;6.170;2022-10-16T03:57:47;100887.69;;;13.05;88.04
74372;BME280;62885;51.374;6.170;2022-10-16T04:00:13;100886.59;;;13.07;88.14
74372;BME280;62885;51.374;6.170;2022-10-16T04:02:38;100887.00;;;13.03;88.05
74372;BME280;62885;51.374;6.170;2022-10-16T04:05:04;100886.00;;;13.04;88.26
74372;BME280;62885;51.374;6.170;2022-10-16T04:07:29;100893.06;;;13.05;87.85
74372;BME280;62885;51.374;6.170;2022-10-16T04:09:55;100887.84;;;13.03;88.10
74372;BME280;62885;51.374;6.170;2022-10-16T04:12:20;100895.28;;;13.00;88.13
74372;BME280;62885;51.374;6.170;2022-10-16T04:14:46;100903.13;;;13.03;87.78
74372;BME280;62885;51.374;6.170;2022-10-16T04:17:11;100894.31;;;13.01;88.26
74372;BME280;62885;51.374;6.170;2022-10-16T04:19:37;100899.69;;;13.01;88.33
74372;BME280;62885;51.374;6.170;2022-10-16T04:22:02;100909.59;;;13.00;87.92
74372;BME280;62885;51.374;6.170;2022-10-16T04:24:27;100914.56;;;13.05;88.10
74372;BME280;62885;51.374;6.170;2022-10-16T04:26:53;100915.31;;;13.07;87.57
74372;BME280;62885;51.374;6.170;2022-10-16T04:29:18;100921.81;;;13.04;87.93
74372;BME280;62885;51.374;6.170;2022-10-16T04:31:44;100921.06;;;13.02;88.37
74372;BME280;62885;51.374;6.170;2022-10-16T04:34:09;100917.66;;;13.00;88.51
74372;BME280;62885;51.374;6.170;2022-10-16T04:36:34;100920.97;;;13.04;88.07
74372;BME280;62885;51.374;6.170;2022-10-16T04:38:59;100932.19;;;13.09;88.35
74372;BME280;62885;51.374;6.170;2022-10-16T04:41:25;100931.81;;;13.02;87.80
74372;BME280;62885;51.374;6.170;2022-10-16T04:43:50;100927.03;;;13.06;87.90
74372;BME280;62885;51.374;6.170;2022-10-16T04:46:15;100923.97;;;13.10;87.85
74372;BME280;62885;51.374;6.170;2022-10-16T04:48:41;100919.44;;;13.11;87.70
74372;BME280;62885;51.374;6.170;2022-10-16T04:51:06;100935.25;;;13.15;87.70
74372;BME280;62885;51.374;6.170;2022-10-16T04:53:32;100928.75;;;13.18;87.41
74372;BME280;62885;51.374;6.170;2022-10-16T04:55:58;100939.63;;;13.16;87.19
74372;BME280;62885;51.374;6.170;2022-10-16T04:58:23;100932.78;;;13.12;87.42
74372;BME280;62885;51.374;6.170;2022-10-16T05:00:49;100937.06;;;13.15;87.40
74372;BME280;62885;51.374;6.170;2022-10-16T05:03:14;100945.50;;;13.22;87.49
74372;BME280;62885;51.374;6.170;2022-10-16T05:05:44;100943.38;;;13.25;87.13
74372;BME280;62885;51.374;6.170;2022-10-16T05:08:11;100948.66;;;13.27;87.00
74372;BME280;62885;51.374;6.170;2022-10-16T05:10:37;100952.94;;;13.18;87.57
74372;BME280;62885;51.374;6.170;2022-10-16T05:13:02;100952.94;;;13.18;87.49
74372;BME280;62885;51.374;6.170;2022-10-16T05:15:28;100943.91;;;13.19;87.79
74372;BME280;62885;51.374;6.170;2022-10-16T05:17:54;100950.25;;;13.18;87.69
74372;BME280;62885;51.374;6.170;2022-10-16T05:20:21;100945.00;;;13.16;87.34
74372;BME280;62885;51.374;6.170;2022-10-16T05:22:46;100940.69;;;13.25;87.78
74372;BME280;62885;51.374;6.170;2022-10-16T05:25:12;100946.06;;;13.25;87.05
74372;BME280;62885;51.374;6.170;2022-10-16T05:27:37;100957.84;;;13.13;87.28
74372;BME280;62885;51.374;6.170;2022-10-16T05:30:03;100956.00;;;13.13;87.56
74372;BME280;62885;51.374;6.170;2022-10-16T05:32:28;100954.38;;;13.11;87.36
74372;BME280;62885;51.374;6.170;2022-10-16T05:34:53;100956.75;;;13.04;87.63
74372;BME280;62885;51.374;6.170;2022-10-16T05:37:19;100959.28;;;13.06;87.88
74372;BME280;62885;51.374;6.170;2022-10-16T05:39:44;100972.50;;;13.09;88.23
74372;BME280;62885;51.374;6.170;2022-10-16T05:42:09;100979.22;;;13.03;88.29
74372;BME280;62885;51.374;6.170;2022-10-16T05:44:35;100984.50;;;13.16;87.63
74372;BME280;62885;51.374;6.170;2022-10-16T05:47:00;100981.53;;;13.08;88.28
74372;BME280;62885;51.374;6.170;2022-10-16T05:49:27;100981.28;;;13.11;88.20
74372;BME280;62885;51.374;6.170;2022-10-16T05:51:52;100989.84;;;13.05;88.14
74372;BME280;62885;51.374;6.170;2022-10-16T05:54:18;100993.53;;;13.04;88.03
74372;BME280;62885;51.374;6.170;2022-10-16T05:56:43;100991.31;;;13.09;88.04
74372;BME280;62885;51.374;6.170;2022-10-16T05:59:09;101001.81;;;13.23;88.33
74372;BME280;62885;51.374;6.170;2022-10-16T06:01:34;101003.78;;;13.10;87.77
74372;BME280;62885;51.374;6.170;2022-10-16T06:04:01;101007.22;;;13.12;88.31
74372;BME280;62885;51.374;6.170;2022-10-16T06:06:27;101012.09;;;13.07;88.24
74372;BME280;62885;51.374;6.170;2022-10-16T06:08:54;101021.13;;;13.06;88.41
74372;BME280;62885;51.374;6.170;2022-10-16T06:11:23;101021.84;;;13.08;87.88
74372;BME280;62885;51.374;6.170;2022-10-16T06:13:49;101033.00;;;13.14;87.66
74372;BME280;62885;51.374;6.170;2022-10-16T06:16:15;101026.50;;;13.17;88.13
74372;BME280;62885;51.374;6.170;2022-10-16T06:18:40;101029.94;;;13.08;88.35
74372;BME280;62885;51.374;6.170;2022-10-16T06:21:16;101042.38;;;13.09;88.51
74372;BME280;62885;51.374;6.170;2022-10-16T06:23:41;101044.81;;;13.23;88.93
74372;BME280;62885;51.374;6.170;2022-10-16T06:26:08;101044.34;;;13.07;88.24
74372;BME280;62885;51.374;6.170;2022-10-16T06:28:34;101050.94;;;13.03;88.36
74372;BME280;62885;51.374;6.170;2022-10-16T06:31:01;101053.63;;;13.03;88.86
74372;BME280;62885;51.374;6.170;2022-10-16T06:33:27;101057.91;;;13.05;88.57
74372;BME280;62885;51.374;6.170;2022-10-16T06:35:52;101055.69;;;12.99;89.08
74372;BME280;62885;51.374;6.170;2022-10-16T06:38:17;101056.81;;;12.97;88.39
74372;BME280;62885;51.374;6.170;2022-10-16T06:40:43;101067.47;;;12.98;89.15
74372;BME280;62885;51.374;6.170;2022-10-16T06:43:08;101068.53;;;12.96;89.15
74372;BME280;62885;51.374;6.170;2022-10-16T06:45:34;101085.41;;;12.98;89.13
74372;BME280;62885;51.374;6.170;2022-10-16T06:47:59;101082.25;;;12.93;89.13
74372;BME280;62885;51.374;6.170;2022-10-16T06:50:24;101083.44;;;13.00;89.19
74372;BME280;62885;51.374;6.170;2022-10-16T06:52:50;101088.47;;;13.04;89.44
74372;BME280;62885;51.374;6.170;2022-10-16T06:55:15;101096.00;;;12.99;88.98
74372;BME280;62885;51.374;6.170;2022-10-16T06:57:42;101112.16;;;12.99;88.98
74372;BME280;62885;51.374;6.170;2022-10-16T07:00:08;101109.59;;;12.98;89.00
74372;BME280;62885;51.374;6.170;2022-10-16T07:02:34;101113.97;;;12.99;89.17
74372;BME280;62885;51.374;6.170;2022-10-16T07:04:59;101115.19;;;13.06;89.39
74372;BME280;62885;51.374;6.170;2022-10-16T07:07:24;101106.91;;;12.98;89.44
74372;BME280;62885;51.374;6.170;2022-10-16T07:09:51;101112.16;;;12.99;88.91
74372;BME280;62885;51.374;6.170;2022-10-16T07:12:16;101107.88;;;13.08;88.85
74372;BME280;62885;51.374;6.170;2022-10-16T07:14:42;101120.97;;;13.12;89.08
74372;BME280;62885;51.374;6.170;2022-10-16T07:17:07;101122.69;;;13.13;89.07
74372;BME280;62885;51.374;6.170;2022-10-16T07:19:33;101117.50;;;13.10;89.00
74372;BME280;62885;51.374;6.170;2022-10-16T07:21:58;101127.94;;;13.26;88.43
74372;BME280;62885;51.374;6.170;2022-10-16T07:24:24;101137.34;;;13.32;88.34
74372;BME280;62885;51.374;6.170;2022-10-16T07:26:49;101141.13;;;13.40;88.55
74372;BME280;62885;51.374;6.170;2022-10-16T07:29:18;101137.47;;;13.41;87.50
74372;BME280;62885;51.374;6.170;2022-10-16T07:31:44;101130.97;;;13.44;87.42
74372;BME280;62885;51.374;6.170;2022-10-16T07:34:11;101139.75;;;13.57;87.59
74372;BME280;62885;51.374;6.170;2022-10-16T07:36:36;101141.78;;;13.76;86.66
74372;BME280;62885;51.374;6.170;2022-10-16T07:39:02;101146.19;;;13.77;86.33
74372;BME280;62885;51.374;6.170;2022-10-16T07:41:28;101153.53;;;13.75;86.27
74372;BME280;62885;51.374;6.170;2022-10-16T07:43:54;101164.28;;;13.75;86.25
74372;BME280;62885;51.374;6.170;2022-10-16T07:46:21;101164.09;;;13.98;85.14
74372;BME280;62885;51.374;6.170;2022-10-16T07:48:47;101169.28;;;13.90;85.22
74372;BME280;62885;51.374;6.170;2022-10-16T07:51:24;101176.75;;;13.87;85.64
74372;BME280;62885;51.374;6.170;2022-10-16T07:53:50;101182.75;;;13.90;85.40
74372;BME280;62885;51.374;6.170;2022-10-16T07:56:17;101186.53;;;13.88;85.55
74372;BME280;62885;51.374;6.170;2022-10-16T07:58:43;101192.38;;;14.04;85.28
74372;BME280;62885;51.374;6.170;2022-10-16T08:01:10;101202.50;;;14.12;84.75
74372;BME280;62885;51.374;6.170;2022-10-16T08:03:36;101206.78;;;14.14;84.55
74372;BME280;62885;51.374;6.170;2022-10-16T08:06:03;101202.38;;;14.13;84.83
74372;BME280;62885;51.374;6.170;2022-10-16T08:08:29;101214.50;;;14.19;84.70
74372;BME280;62885;51.374;6.170;2022-10-16T08:10:54;101219.47;;;14.23;84.26
74372;BME280;62885;51.374;6.170;2022-10-16T08:13:20;101218.38;;;14.37;84.11
74372;BME280;62885;51.374;6.170;2022-10-16T08:15:46;101236.09;;;14.39;83.78
74372;BME280;62885;51.374;6.170;2022-10-16T08:18:13;101234.72;;;14.45;83.55
74372;BME280;62885;51.374;6.170;2022-10-16T08:20:39;101236.22;;;14.49;83.40
74372;BME280;62885;51.374;6.170;2022-10-16T08:23:05;101227.63;;;14.55;83.12
74372;BME280;62885;51.374;6.170;2022-10-16T08:25:34;101232.78;;;14.68;82.83
74372;BME280;62885;51.374;6.170;2022-10-16T08:27:59;101236.22;;;14.70;82.69
74372;BME280;62885;51.374;6.170;2022-10-16T08:30:25;101246.59;;;14.74;82.15
74372;BME280;62885;51.374;6.170;2022-10-16T08:32:50;101253.78;;;14.85;81.90
74372;BME280;62885;51.374;6.170;2022-10-16T08:35:16;101244.72;;;14.86;81.55
74372;BME280;62885;51.374;6.170;2022-10-16T08:37:42;101245.03;;;14.93;81.59
74372;BME280;62885;51.374;6.170;2022-10-16T08:40:19;101250.38;;;15.04;81.30
74372;BME280;62885;51.374;6.170;2022-10-16T08:45:33;101266.88;;;15.10;80.58
74372;BME280;62885;51.374;6.170;2022-10-16T08:50:42;101271.94;;;15.25;80.80
74372;BME280;62885;51.374;6.170;2022-10-16T08:53:14;101270.69;;;15.29;80.00
74372;BME280;62885;51.374;6.170;2022-10-16T08:55:46;101281.19;;;15.32;79.70
74372;BME280;62885;51.374;6.170;2022-10-16T08:58:16;101282.72;;;15.45;79.33
74372;BME280;62885;51.374;6.170;2022-10-16T09:00:44;101281.59;;;15.48;78.57
74372;BME280;62885;51.374;6.170;2022-10-16T09:03:26;101282.19;;;15.51;78.45
74372;BME280;62885;51.374;6.170;2022-10-16T09:17:38;101296.56;;;15.82;76.52
74372;BME280;62885;51.374;6.170;2022-10-16T09:22:37;101292.91;;;15.93;75.91
74372;BME280;62885;51.374;6.170;2022-10-16T09:25:13;101292.50;;;15.97;75.81
74372;BME280;62885;51.374;6.170;2022-10-16T09:27:38;101295.38;;;16.06;75.75
74372;BME280;62885;51.374;6.170;2022-10-16T09:30:16;101293.09;;;16.11;75.46
74372;BME280;62885;51.374;6.170;2022-10-16T09:32:43;101297.41;;;16.13;74.49
74372;BME280;62885;51.374;6.170;2022-10-16T09:35:15;101297.53;;;16.12;74.11
74372;BME280;62885;51.374;6.170;2022-10-16T09:37:43;101306.50;;;16.22;73.70
74372;BME280;62885;51.374;6.170;2022-10-16T09:40:24;101297.84;;;16.28;74.01
74372;BME280;62885;51.374;6.170;2022-10-16T09:42:52;101296.84;;;16.29;74.17
74372;BME280;62885;51.374;6.170;2022-10-16T09:45:23;101303.28;;;16.47;73.91
74372;BME280;62885;51.374;6.170;2022-10-16T09:47:49;101301.03;;;16.52;73.38
74372;BME280;62885;51.374;6.170;2022-10-16T09:50:24;101303.72;;;16.52;72.42
74372;BME280;62885;51.374;6.170;2022-10-16T09:53:02;101309.03;;;16.63;72.13
74372;BME280;62885;51.374;6.170;2022-10-16T09:55:28;101299.50;;;16.69;72.33
74372;BME280;62885;51.374;6.170;2022-10-16T09:57:54;101302.47;;;16.66;71.54
74372;BME280;62885;51.374;6.170;2022-10-16T10:00:21;101299.94;;;16.64;70.98
74372;BME280;62885;51.374;6.170;2022-10-16T10:02:46;101315.16;;;16.65;70.80
74372;BME280;62885;51.374;6.170;2022-10-16T10:05:27;101306.50;;;16.71;70.71
74372;BME280;62885;51.374;6.170;2022-10-16T10:08:01;101313.75;;;16.80;70.98
74372;BME280;62885;51.374;6.170;2022-10-16T10:10:33;101316.16;;;16.93;70.34
74372;BME280;62885;51.374;6.170;2022-10-16T10:13:01;101312.72;;;17.01;69.68
74372;BME280;62885;51.374;6.170;2022-10-16T10:15:33;101306.63;;;16.99;70.22
74372;BME280;62885;51.374;6.170;2022-10-16T10:18:00;101302.47;;;17.14;69.87
74372;BME280;62885;51.374;6.170;2022-10-16T10:20:33;101317.72;;;17.15;69.05
74372;BME280;62885;51.374;6.170;2022-10-16T10:23:00;101324.69;;;17.17;68.67
74372;BME280;62885;51.374;6.170;2022-10-16T10:31:05;101325.69;;;16.97;67.82
74372;BME280;62885;51.374;6.170;2022-10-16T10:33:43;101336.38;;;16.99;67.84
74372;BME280;62885;51.374;6.170;2022-10-16T10:36:29;101324.84;;;16.87;67.62
74372;BME280;62885;51.374;6.170;2022-10-16T10:41:51;101336.81;;;16.94;68.41
74372;BME280;62885;51.374;6.170;2022-10-16T10:46:56;101336.78;;;17.13;67.65
74372;BME280;62885;51.374;6.170;2022-10-16T11:00:34;101349.03;;;17.08;68.06
74372;BME280;62885;51.374;6.170;2022-10-16T11:06:08;101342.78;;;17.17;67.42
74372;BME280;62885;51.374;6.170;2022-10-16T11:08:39;101342.03;;;17.24;66.72
74372;BME280;62885;51.374;6.170;2022-10-16T11:14:06;101348.00;;;17.57;65.80
74372;BME280;62885;51.374;6.170;2022-10-16T11:16:39;101351.88;;;17.64;65.90
74372;BME280;62885;51.374;6.170;2022-10-16T11:19:14;101354.09;;;17.59;66.04
74372;BME280;62885;51.374;6.170;2022-10-16T11:27:31;101346.81;;;17.59;66.70
74372;BME280;62885;51.374;6.170;2022-10-16T11:30:02;101348.13;;;17.75;65.65
74372;BME280;62885;51.374;6.170;2022-10-16T11:38:01;101363.47;;;17.93;64.18
74372;BME280;62885;51.374;6.170;2022-10-16T11:40:31;101353.63;;;17.83;64.56
74372;BME280;62885;51.374;6.170;2022-10-16T11:43:22;101358.59;;;17.97;64.15
74372;BME280;62885;51.374;6.170;2022-10-16T11:45:54;101369.63;;;18.23;63.88
74372;BME280;62885;51.374;6.170;2022-10-16T11:49:21;101366.72;;;18.34;62.91
74372;BME280;62885;51.374;6.170;2022-10-16T11:51:35;101364.16;;;18.60;62.31
74372;BME280;62885;51.374;6.170;2022-10-16T11:56:37;101361.84;;;18.65;61.93
74372;BME280;62885;51.374;6.170;2022-10-16T11:59:05;101369.38;;;18.43;62.60
74372;BME280;62885;51.374;6.170;2022-10-16T12:01:37;101375.53;;;18.36;63.57
74372;BME280;62885;51.374;6.170;2022-10-16T12:06:48;101364.56;;;18.00;63.25
74372;BME280;62885;51.374;6.170;2022-10-16T12:09:21;101372.28;;;17.95;63.20
74372;BME280;62885;51.374;6.170;2022-10-16T12:11:47;101375.00;;;17.95;63.65
74372;BME280;62885;51.374;6.170;2022-10-16T12:16:54;101366.53;;;18.08;63.78
74372;BME280;62885;51.374;6.170;2022-10-16T12:19:23;101361.25;;;18.06;63.52
74372;BME280;62885;51.374;6.170;2022-10-16T12:21:50;101364.81;;;18.17;63.62
74372;BME280;62885;51.374;6.170;2022-10-16T12:24:37;101366.13;;;18.30;63.22
74372;BME280;62885;51.374;6.170;2022-10-16T12:27:05;101365.00;;;18.33;62.74
74372;BME280;62885;51.374;6.170;2022-10-16T12:29:41;101368.78;;;18.22;63.08
74372;BME280;62885;51.374;6.170;2022-10-16T12:32:30;101367.44;;;18.26;63.27
74372;BME280;62885;51.374;6.170;2022-10-16T12:34:57;101364.53;;;18.37;62.69
74372;BME280;62885;51.374;6.170;2022-10-16T12:37:31;101367.50;;;18.44;62.13
74372;BME280;62885;51.374;6.170;2022-10-16T12:39:57;101369.91;;;18.57;62.69
74372;BME280;62885;51.374;6.170;2022-10-16T12:42:33;101371.44;;;18.59;62.44
74372;BME280;62885;51.374;6.170;2022-10-16T12:44:59;101367.50;;;18.71;61.93
74372;BME280;62885;51.374;6.170;2022-10-16T12:49:57;101368.56;;;18.61;61.36
74372;BME280;62885;51.374;6.170;2022-10-16T12:52:36;101365.97;;;18.69;61.57
74372;BME280;62885;51.374;6.170;2022-10-16T12:55:05;101366.72;;;18.61;61.79
74372;BME280;62885;51.374;6.170;2022-10-16T13:00:50;101366.41;;;18.82;60.89
74372;BME280;62885;51.374;6.170;2022-10-16T13:12:15;101377.09;;;18.38;61.34
74372;BME280;62885;51.374;6.170;2022-10-16T13:17:44;101386.72;;;18.23;62.13
74372;BME280;62885;51.374;6.170;2022-10-16T13:23:18;101373.88;;;18.25;62.13
74372;BME280;62885;51.374;6.170;2022-10-16T13:26:15;101376.97;;;18.30;61.92
74372;BME280;62885;51.374;6.170;2022-10-16T13:28:42;101377.25;;;18.37;62.00
74372;BME280;62885;51.374;6.170;2022-10-16T13:31:15;101374.53;;;18.37;61.56
74372;BME280;62885;51.374;6.170;2022-10-16T13:33:48;101371.22;;;18.43;61.58
74372;BME280;62885;51.374;6.170;2022-10-16T13:36:42;101376.38;;;18.64;61.74
74372;BME280;62885;51.374;6.170;2022-10-16T13:39:28;101375.63;;;18.71;61.54
74372;BME280;62885;51.374;6.170;2022-10-16T13:42:13;101383.72;;;18.63;61.52
74372;BME280;62885;51.374;6.170;2022-10-16T13:44:45;101399.00;;;18.55;61.24
74372;BME280;62885;51.374;6.170;2022-10-16T13:47:24;101398.13;;;18.54;61.42
74372;BME280;62885;51.374;6.170;2022-10-16T13:50:10;101388.16;;;18.55;61.62
74372;BME280;62885;51.374;6.170;2022-10-16T13:52:37;101398.88;;;18.56;61.78
74372;BME280;62885;51.374;6.170;2022-10-16T13:55:24;101406.00;;;18.57;61.98
74372;BME280;62885;51.374;6.170;2022-10-16T13:57:49;101407.53;;;18.60;61.68
74372;BME280;62885;51.374;6.170;2022-10-16T14:00:23;101403.56;;;18.54;62.08
74372;BME280;62885;51.374;6.170;2022-10-16T14:02:55;101391.41;;;18.58;61.78
74372;BME280;62885;51.374;6.170;2022-10-16T14:05:22;101377.97;;;18.66;61.78
74372;BME280;62885;51.374;6.170;2022-10-16T14:07:49;101386.50;;;18.71;61.25
74372;BME280;62885;51.374;6.170;2022-10-16T14:10:27;101405.72;;;18.78;60.77
74372;BME280;62885;51.374;6.170;2022-10-16T14:13:29;101406.59;;;18.78;61.08
74372;BME280;62885;51.374;6.170;2022-10-16T14:15:55;101403.72;;;18.80;60.46
74372;BME280;62885;51.374;6.170;2022-10-16T14:18:25;101410.88;;;18.81;61.50
74372;BME280;62885;51.374;6.170;2022-10-16T14:20:52;101405.59;;;18.79;61.48
74372;BME280;62885;51.374;6.170;2022-10-16T14:23:36;101408.44;;;18.78;61.12
74372;BME280;62885;51.374;6.170;2022-10-16T14:26:12;101412.63;;;18.72;61.49
74372;BME280;62885;51.374;6.170;2022-10-16T14:28:39;101416.47;;;18.70;61.68
74372;BME280;62885;51.374;6.170;2022-10-16T14:33:52;101398.47;;;18.41;62.23
74372;BME280;62885;51.374;6.170;2022-10-16T14:36:18;101405.94;;;18.39;62.45
74372;BME280;62885;51.374;6.170;2022-10-16T14:39:04;101401.19;;;18.41;62.68
74372;BME280;62885;51.374;6.170;2022-10-16T14:41:31;101402.50;;;18.37;62.85
74372;BME280;62885;51.374;6.170;2022-10-16T14:44:02;101403.81;;;18.33;62.42
74372;BME280;62885;51.374;6.170;2022-10-16T14:46:33;101396.94;;;18.39;62.54